createdAt,value
2018-12-21T00:01:08.021Z,5.50
2018-12-21T00:03:36.302Z,5.50
2018-12-21T00:06:04.501Z,5.60
2018-12-21T00:08:32.612Z,5.50
2018-12-21T00:11:00.805Z,5.60
2018-12-21T00:13:28.933Z,5.50
2018-12-21T00:15:57.051Z,5.60
2018-12-21T00:18:25.193Z,5.50
2018-12-21T00:20:53.317Z,5.60
2018-12-21T00:23:21.444Z,5.60
2018-12-21T00:25:49.569Z,5.60
2018-12-21T00:28:17.764Z,5.60
2018-12-21T00:30:45.196Z,5.60
2018-12-21T00:33:18.885Z,5.60
2018-12-21T00:35:52.469Z,5.60
2018-12-21T00:38:26.029Z,5.60
2018-12-21T00:40:59.820Z,5.60
2018-12-21T00:43:33.204Z,5.60
2018-12-21T00:46:06.584Z,5.60
2018-12-21T00:48:34.708Z,5.70
2018-12-21T00:51:03.058Z,5.60
2018-12-21T00:53:31.215Z,5.60
2018-12-21T00:55:59.452Z,5.60
2018-12-21T00:58:27.741Z,5.50
2018-12-21T01:00:55.852Z,5.60
2018-12-21T01:03:23.982Z,5.50
2018-12-21T01:05:52.107Z,5.50
2018-12-21T01:08:20.236Z,5.50
2018-12-21T01:10:48.424Z,5.50
2018-12-21T01:13:16.553Z,5.50
2018-12-21T01:15:44.680Z,5.50
2018-12-21T01:18:12.886Z,5.50
2018-12-21T01:20:41.060Z,5.50
2018-12-21T01:23:09.186Z,5.50
2018-12-21T01:25:37.303Z,5.50
2018-12-21T01:28:05.422Z,5.50
2018-12-21T01:30:33.632Z,5.50
2018-12-21T01:33:01.740Z,5.50
2018-12-21T01:35:29.946Z,5.50
2018-12-21T01:37:58.060Z,5.40
2018-12-21T01:40:26.196Z,5.40
2018-12-21T01:42:54.311Z,5.40
2018-12-21T01:45:22.518Z,5.40
2018-12-21T01:47:50.640Z,5.40
2018-12-21T01:50:18.760Z,5.40
2018-12-21T01:52:46.890Z,5.50
2018-12-21T01:55:15.098Z,5.50
2018-12-21T01:57:43.215Z,5.40
2018-12-21T02:00:11.412Z,5.40
2018-12-21T02:02:39.614Z,5.50
2018-12-21T02:05:07.900Z,5.50
2018-12-21T02:07:36.173Z,5.50
2018-12-21T02:10:05.097Z,5.50
2018-12-21T02:12:33.796Z,5.50
2018-12-21T02:15:01.974Z,5.50
2018-12-21T02:17:30.122Z,5.50
2018-12-21T02:19:58.262Z,5.50
2018-12-21T02:22:26.450Z,5.50
2018-12-21T02:24:54.581Z,5.50
2018-12-21T02:27:22.692Z,5.50
2018-12-21T02:29:50.827Z,5.50
2018-12-21T02:32:18.948Z,5.50
2018-12-21T02:34:47.162Z,5.50
2018-12-21T02:37:15.350Z,5.50
2018-12-21T02:39:43.473Z,5.50
2018-12-21T02:42:11.573Z,5.60
2018-12-21T02:44:39.700Z,5.60
2018-12-21T02:47:07.818Z,5.60
2018-12-21T02:49:35.936Z,5.60
2018-12-21T02:52:05.690Z,5.60
2018-12-21T02:54:34.180Z,5.60
2018-12-21T02:57:02.291Z,5.60
2018-12-21T02:59:30.488Z,5.60
2018-12-21T03:01:58.595Z,5.60
2018-12-21T03:04:26.723Z,5.60
2018-12-21T03:06:55.007Z,5.60
2018-12-21T03:09:23.205Z,5.60
2018-12-21T03:11:51.318Z,5.60
2018-12-21T03:14:19.506Z,5.60
2018-12-21T03:16:47.761Z,5.60
2018-12-21T03:19:15.876Z,5.60
2018-12-21T03:21:44.069Z,5.60
2018-12-21T03:24:12.184Z,5.60
2018-12-21T03:26:40.391Z,5.60
2018-12-21T03:29:08.495Z,5.60
2018-12-21T03:31:36.635Z,5.60
2018-12-21T03:34:04.894Z,5.70
2018-12-21T03:36:33.086Z,5.60
2018-12-21T03:39:01.279Z,5.70
2018-12-21T03:41:29.600Z,5.70
2018-12-21T03:43:57.715Z,5.70
2018-12-21T03:46:25.846Z,5.70
2018-12-21T03:48:54.029Z,5.70
2018-12-21T03:51:22.146Z,5.70
2018-12-21T03:53:50.258Z,5.70
2018-12-21T03:56:18.375Z,5.70
2018-12-21T03:58:46.494Z,5.70
2018-12-21T04:01:14.621Z,5.70
2018-12-21T04:03:42.735Z,5.80
2018-12-21T04:06:10.941Z,5.80
2018-12-21T04:08:39.077Z,5.80
2018-12-21T04:11:07.280Z,5.80
2018-12-21T04:13:35.401Z,5.90
2018-12-21T04:16:03.539Z,5.80
2018-12-21T04:18:31.674Z,5.90
2018-12-21T04:20:59.788Z,5.80
2018-12-21T04:23:27.990Z,5.80
2018-12-21T04:25:56.101Z,5.80
2018-12-21T04:28:24.216Z,5.80
2018-12-21T04:30:52.348Z,5.80
2018-12-21T04:33:20.473Z,5.80
2018-12-21T04:35:48.610Z,5.90
2018-12-21T04:38:16.824Z,5.90
2018-12-21T04:40:45.046Z,5.80
2018-12-21T04:43:13.205Z,5.80
2018-12-21T04:45:41.359Z,5.80
2018-12-21T04:48:09.679Z,5.80
2018-12-21T04:50:37.882Z,5.90
2018-12-21T04:53:06.009Z,5.90
2018-12-21T04:55:34.315Z,5.90
2018-12-21T04:58:02.428Z,5.90
2018-12-21T05:00:30.614Z,5.90
2018-12-21T05:02:58.836Z,5.90
2018-12-21T05:05:27.040Z,5.90
2018-12-21T05:07:55.269Z,5.80
2018-12-21T05:10:23.625Z,5.80
2018-12-21T05:12:51.858Z,5.90
2018-12-21T05:15:20.219Z,5.90
2018-12-21T05:17:48.426Z,5.90
2018-12-21T05:20:16.696Z,5.90
2018-12-21T05:22:52.296Z,5.90
2018-12-21T05:25:14.961Z,5.90
2018-12-21T05:27:43.080Z,5.90
2018-12-21T05:30:11.202Z,5.90
2018-12-21T05:32:39.349Z,5.90
2018-12-21T05:35:07.603Z,5.90
2018-12-21T05:37:35.778Z,5.90
2018-12-21T05:40:04.401Z,5.90
2018-12-21T05:42:32.598Z,5.80
2018-12-21T05:45:00.971Z,5.90
2018-12-21T05:47:29.085Z,5.90
2018-12-21T05:49:57.222Z,5.90
2018-12-21T05:52:25.352Z,5.90
2018-12-21T05:54:53.628Z,5.90
2018-12-21T05:57:21.828Z,5.90
2018-12-21T05:59:49.945Z,5.90
2018-12-21T06:02:18.126Z,5.80
2018-12-21T06:04:46.232Z,5.80
2018-12-21T06:07:14.429Z,5.90
2018-12-21T06:09:42.547Z,5.90
2018-12-21T06:12:10.765Z,5.90
2018-12-21T06:14:38.881Z,5.90
2018-12-21T06:17:07.077Z,5.90
2018-12-21T06:19:35.188Z,5.90
2018-12-21T06:22:03.393Z,5.90
2018-12-21T06:24:31.533Z,5.90
2018-12-21T06:26:59.650Z,5.90
2018-12-21T06:29:27.779Z,5.90
2018-12-21T06:31:55.921Z,5.90
2018-12-21T06:34:24.045Z,5.90
2018-12-21T06:36:52.172Z,6.00
2018-12-21T06:39:20.280Z,6.00
2018-12-21T06:41:48.390Z,6.00
2018-12-21T06:44:16.563Z,6.10
2018-12-21T06:46:44.787Z,6.00
2018-12-21T06:49:12.959Z,6.00
2018-12-21T06:51:41.254Z,6.00
2018-12-21T06:54:09.433Z,6.00
2018-12-21T06:56:37.567Z,6.00
2018-12-21T06:59:05.917Z,6.00
2018-12-21T07:01:34.350Z,6.00
2018-12-21T07:04:02.577Z,6.00
2018-12-21T07:06:30.768Z,6.00
2018-12-21T07:08:58.948Z,6.00
2018-12-21T07:11:27.132Z,6.00
2018-12-21T07:13:55.328Z,6.10
2018-12-21T07:16:23.538Z,6.10
2018-12-21T07:18:51.993Z,6.10
2018-12-21T07:21:20.160Z,6.10
2018-12-21T07:23:48.379Z,6.10
2018-12-21T07:26:16.515Z,6.10
2018-12-21T07:28:44.744Z,6.20
2018-12-21T07:31:12.882Z,6.20
2018-12-21T07:33:41.093Z,6.20
2018-12-21T07:36:09.345Z,6.20
2018-12-21T07:38:37.489Z,6.20
2018-12-21T07:41:05.704Z,6.20
2018-12-21T07:43:33.830Z,6.20
2018-12-21T07:46:01.953Z,6.30
2018-12-21T07:48:30.161Z,6.30
2018-12-21T07:50:58.284Z,6.30
2018-12-21T07:53:26.404Z,6.30
2018-12-21T07:55:54.543Z,6.30
2018-12-21T07:58:22.678Z,6.30
2018-12-21T08:00:50.952Z,6.30
2018-12-21T08:03:19.078Z,6.30
2018-12-21T08:05:47.205Z,6.40
2018-12-21T08:08:15.321Z,6.40
2018-12-21T08:10:43.450Z,6.40
2018-12-21T08:13:11.560Z,6.40
2018-12-21T08:15:39.765Z,6.50
2018-12-21T08:18:07.973Z,6.40
2018-12-21T08:20:36.182Z,6.50
2018-12-21T08:23:04.372Z,6.50
2018-12-21T08:25:32.503Z,6.60
2018-12-21T08:28:00.625Z,6.50
2018-12-21T08:30:28.748Z,6.60
2018-12-21T08:32:56.878Z,6.60
2018-12-21T08:35:25.037Z,6.60
2018-12-21T08:37:53.159Z,6.60
2018-12-21T08:40:21.365Z,6.60
2018-12-21T08:42:49.528Z,6.70
2018-12-21T08:45:17.639Z,6.70
2018-12-21T08:47:45.756Z,6.70
2018-12-21T08:50:13.964Z,6.70
2018-12-21T08:52:42.075Z,6.70
2018-12-21T08:55:11.919Z,6.70
2018-12-21T08:57:40.317Z,6.70
2018-12-21T09:00:11.296Z,6.70
2018-12-21T09:02:39.412Z,6.70
2018-12-21T09:05:08.317Z,6.80
2018-12-21T09:07:37.326Z,6.80
2018-12-21T09:10:07.792Z,6.80
2018-12-21T09:12:35.916Z,6.80
2018-12-21T09:15:04.740Z,6.90
2018-12-21T09:17:32.868Z,6.90
2018-12-21T09:20:01.009Z,6.90
2018-12-21T09:22:29.128Z,6.90
2018-12-21T09:24:57.240Z,6.90
2018-12-21T09:27:25.388Z,6.90
2018-12-21T09:29:53.514Z,7.00
2018-12-21T09:32:21.648Z,7.00
2018-12-21T09:34:49.842Z,7.00
2018-12-21T09:37:18.049Z,7.00
2018-12-21T09:39:46.240Z,7.00
2018-12-21T09:42:14.360Z,7.00
2018-12-21T09:44:42.580Z,7.10
2018-12-21T09:47:10.696Z,7.10
2018-12-21T09:49:38.916Z,7.10
2018-12-21T09:52:07.293Z,7.20
2018-12-21T09:54:35.414Z,7.20
2018-12-21T09:57:03.549Z,7.20
2018-12-21T09:59:31.831Z,7.20
2018-12-21T10:02:00.039Z,7.20
2018-12-21T10:04:28.152Z,7.20
2018-12-21T10:06:56.277Z,7.20
2018-12-21T10:09:24.383Z,7.20
2018-12-21T10:11:52.505Z,7.30
2018-12-21T10:14:20.625Z,7.30
2018-12-21T10:16:48.765Z,7.40
2018-12-21T10:19:17.038Z,7.40
2018-12-21T10:21:45.162Z,7.40
2018-12-21T10:24:18.443Z,7.40
2018-12-21T10:26:43.389Z,7.40
2018-12-21T10:29:11.496Z,7.50
2018-12-21T10:31:39.637Z,7.40
2018-12-21T10:34:07.752Z,7.50
2018-12-21T10:36:35.897Z,7.50
2018-12-21T10:39:06.927Z,7.60
2018-12-21T10:41:35.144Z,7.60
2018-12-21T10:44:03.419Z,7.60
2018-12-21T10:46:31.553Z,7.70
2018-12-21T10:48:59.676Z,7.70
2018-12-21T10:51:27.941Z,7.70
2018-12-21T10:53:56.089Z,7.70
2018-12-21T10:56:24.221Z,7.80
2018-12-21T10:58:52.354Z,7.80
2018-12-21T11:01:20.486Z,7.90
2018-12-21T11:03:48.635Z,7.90
2018-12-21T11:06:16.846Z,7.90
2018-12-21T11:08:44.972Z,8.00
2018-12-21T11:11:13.093Z,8.00
2018-12-21T11:13:41.247Z,8.00
2018-12-21T11:16:09.504Z,8.10
2018-12-21T11:18:37.637Z,8.10
2018-12-21T11:21:05.748Z,8.10
2018-12-21T11:23:33.882Z,8.20
2018-12-21T11:26:03.525Z,8.30
2018-12-21T11:28:31.655Z,8.20
2018-12-21T11:30:59.769Z,8.20
2018-12-21T11:33:34.680Z,8.30
2018-12-21T11:36:02.868Z,8.30
2018-12-21T11:38:30.983Z,8.30
2018-12-21T11:40:59.110Z,8.30
2018-12-21T11:43:27.232Z,8.40
2018-12-21T11:45:55.366Z,8.40
2018-12-21T11:48:23.484Z,8.40
2018-12-21T11:50:51.744Z,8.50
2018-12-21T11:53:19.877Z,8.50
2018-12-21T11:55:48.005Z,8.50
2018-12-21T11:58:16.140Z,8.50
2018-12-21T12:00:44.252Z,8.60
2018-12-21T12:03:12.387Z,8.60
2018-12-21T12:05:40.577Z,8.60
2018-12-21T12:08:08.713Z,8.60
2018-12-21T12:10:36.909Z,8.70
2018-12-21T12:13:05.084Z,8.60
2018-12-21T12:15:33.209Z,8.60
2018-12-21T12:18:01.412Z,8.70
2018-12-21T12:20:29.608Z,8.70
2018-12-21T12:22:57.740Z,8.70
2018-12-21T12:25:25.933Z,8.70
2018-12-21T12:27:54.233Z,8.70
2018-12-21T12:30:23.169Z,8.80
2018-12-21T12:32:51.369Z,8.80
2018-12-21T12:35:19.534Z,8.80
2018-12-21T12:37:47.728Z,8.80
2018-12-21T12:40:15.856Z,8.80
2018-12-21T12:42:43.976Z,8.80
2018-12-21T12:45:24.069Z,8.80
2018-12-21T12:47:52.270Z,8.90
2018-12-21T12:50:20.579Z,9.00
2018-12-21T12:52:48.707Z,9.00
2018-12-21T12:55:16.981Z,9.00
2018-12-21T12:57:45.101Z,9.10
2018-12-21T13:00:13.486Z,9.10
2018-12-21T13:02:41.671Z,9.10
2018-12-21T13:05:09.797Z,9.20
2018-12-21T13:07:37.921Z,9.20
2018-12-21T13:10:08.480Z,9.20
2018-12-21T13:12:36.592Z,9.20
2018-12-21T13:15:07.260Z,9.30
2018-12-21T13:17:35.393Z,9.30
2018-12-21T13:20:04.443Z,9.30
2018-12-21T13:22:32.637Z,9.30
2018-12-21T13:25:00.761Z,9.40
2018-12-21T13:27:28.956Z,9.40
2018-12-21T13:29:57.081Z,9.50
2018-12-21T13:32:25.229Z,9.50
2018-12-21T13:34:53.352Z,9.50
2018-12-21T13:37:21.460Z,9.50
2018-12-21T13:39:49.580Z,9.60
2018-12-21T13:42:17.698Z,9.60
2018-12-21T13:44:45.841Z,9.60
2018-12-21T13:47:13.977Z,9.60
2018-12-21T13:49:42.156Z,9.60
2018-12-21T13:52:10.336Z,9.60
2018-12-21T13:54:38.472Z,9.60
2018-12-21T13:57:06.606Z,9.70
2018-12-21T13:59:34.712Z,9.70
2018-12-21T14:02:03.017Z,9.70
2018-12-21T14:04:31.236Z,9.70
2018-12-21T14:06:59.349Z,9.80
2018-12-21T14:09:27.482Z,9.80
2018-12-21T14:11:55.610Z,9.80
2018-12-21T14:14:23.728Z,9.80
2018-12-21T14:16:51.855Z,9.80
2018-12-21T14:19:19.986Z,9.70
2018-12-21T14:21:48.116Z,9.70
2018-12-21T14:24:16.304Z,9.80
2018-12-21T14:26:45.462Z,9.70
2018-12-21T14:29:13.593Z,9.80
2018-12-21T14:31:41.729Z,9.80
2018-12-21T14:34:09.853Z,9.70
2018-12-21T14:36:37.992Z,9.70
2018-12-21T14:39:06.976Z,9.80
2018-12-21T14:41:35.353Z,9.80
2018-12-21T14:44:04.200Z,9.80
2018-12-21T14:46:32.329Z,9.80
2018-12-21T14:49:00.561Z,9.80
2018-12-21T14:51:33.764Z,9.80
2018-12-21T14:54:01.900Z,9.80
2018-12-21T14:56:30.026Z,9.80
2018-12-21T14:58:58.153Z,9.80
2018-12-21T15:01:26.374Z,9.80
2018-12-21T15:03:55.617Z,9.80
2018-12-21T15:06:23.829Z,9.80
2018-12-21T15:08:51.964Z,9.70
2018-12-21T15:11:20.102Z,9.70
2018-12-21T15:13:49.442Z,9.70
2018-12-21T15:16:17.733Z,9.70
2018-12-21T15:18:45.861Z,9.70
2018-12-21T15:21:14.001Z,9.70
2018-12-21T15:23:42.121Z,9.60
2018-12-21T15:26:10.362Z,9.60
2018-12-21T15:28:38.549Z,9.70
2018-12-21T15:31:06.668Z,9.60
2018-12-21T15:33:34.794Z,9.60
2018-12-21T15:36:03.155Z,9.60
2018-12-21T15:38:31.288Z,9.60
2018-12-21T15:40:59.669Z,9.60
2018-12-21T15:43:27.793Z,9.60
2018-12-21T15:45:56.016Z,9.60
2018-12-21T15:48:24.160Z,9.60
2018-12-21T15:50:52.272Z,9.50
2018-12-21T15:53:20.421Z,9.50
2018-12-21T15:55:54.747Z,9.50
2018-12-21T15:58:18.656Z,9.50
2018-12-21T16:00:46.772Z,9.40
2018-12-21T16:03:16.001Z,9.40
2018-12-21T16:05:44.210Z,9.40
2018-12-21T16:08:12.429Z,9.30
2018-12-21T16:10:40.631Z,9.20
2018-12-21T16:13:08.844Z,9.20
2018-12-21T16:15:37.046Z,9.30
2018-12-21T16:18:05.265Z,9.20
2018-12-21T16:20:33.380Z,9.20
2018-12-21T16:23:01.501Z,9.10
2018-12-21T16:25:29.621Z,9.00
2018-12-21T16:27:57.745Z,9.10
2018-12-21T16:30:25.857Z,9.00
2018-12-21T16:32:53.999Z,9.00
2018-12-21T16:35:22.134Z,8.90
2018-12-21T16:37:50.254Z,8.90
2018-12-21T16:40:18.439Z,8.90
2018-12-21T16:42:46.584Z,8.90
2018-12-21T16:45:14.780Z,8.80
2018-12-21T16:47:42.913Z,8.80
2018-12-21T16:50:13.287Z,8.80
2018-12-21T16:52:41.590Z,8.90
2018-12-21T16:55:10.640Z,8.90
2018-12-21T16:57:38.801Z,8.90
2018-12-21T17:00:11.428Z,8.90
2018-12-21T17:02:39.556Z,9.00
2018-12-21T17:05:07.829Z,8.90
2018-12-21T17:07:35.964Z,8.90
2018-12-21T17:10:06.893Z,8.90
2018-12-21T17:12:37.069Z,9.00
2018-12-21T17:15:06.296Z,9.00
2018-12-21T17:17:34.441Z,9.10
2018-12-21T17:20:04.558Z,9.00
2018-12-21T17:22:32.850Z,9.00
2018-12-21T17:25:00.993Z,9.00
2018-12-21T17:27:29.205Z,9.00
2018-12-21T17:29:57.350Z,9.00
2018-12-21T17:32:25.481Z,9.00
2018-12-21T17:34:55.895Z,9.00
2018-12-21T17:37:23.724Z,9.00
2018-12-21T17:39:51.853Z,9.00
2018-12-21T17:42:19.972Z,8.90
2018-12-21T17:44:48.126Z,9.00
2018-12-21T17:47:16.249Z,8.90
2018-12-21T17:49:44.381Z,8.90
2018-12-21T17:52:12.512Z,8.80
2018-12-21T17:54:40.710Z,8.90
2018-12-21T17:57:08.865Z,8.80
2018-12-21T17:59:37.001Z,8.80
2018-12-21T18:02:05.115Z,8.70
2018-12-21T18:04:33.274Z,8.70
2018-12-21T18:07:01.401Z,8.70
2018-12-21T18:09:33.312Z,8.70
2018-12-21T18:12:01.446Z,8.70
2018-12-21T18:14:29.604Z,8.70
2018-12-21T18:16:58.025Z,8.70
2018-12-21T18:19:26.164Z,8.70
2018-12-21T18:21:59.308Z,8.60
2018-12-21T18:24:28.288Z,8.60
2018-12-21T18:26:56.472Z,8.60
2018-12-21T18:29:25.249Z,8.50
2018-12-21T18:31:57.417Z,8.60
2018-12-21T18:34:33.302Z,8.60
2018-12-21T18:37:02.884Z,8.60
2018-12-21T18:39:31.024Z,8.50
2018-12-21T18:41:59.148Z,8.60
2018-12-21T18:44:27.453Z,8.70
2018-12-21T18:46:55.744Z,8.60
2018-12-21T18:49:23.944Z,8.70
2018-12-21T18:51:52.146Z,8.80
2018-12-21T18:54:20.256Z,8.70
2018-12-21T18:56:57.864Z,8.80
2018-12-21T18:59:25.995Z,8.80
2018-12-21T19:01:54.164Z,8.80
2018-12-21T19:04:22.330Z,8.80
2018-12-21T19:06:50.538Z,8.80
2018-12-21T19:09:18.673Z,8.80
2018-12-21T19:11:46.838Z,8.70
2018-12-21T19:14:15.037Z,8.70
2018-12-21T19:16:43.228Z,8.70
2018-12-21T19:19:11.374Z,8.60
2018-12-21T19:21:39.572Z,8.70
2018-12-21T19:24:07.797Z,8.70
2018-12-21T19:26:35.948Z,8.70
2018-12-21T19:29:04.177Z,8.70
2018-12-21T19:31:32.328Z,8.60
2018-12-21T19:34:00.461Z,8.60
2018-12-21T19:36:28.600Z,8.60
2018-12-21T19:38:56.747Z,8.70
2018-12-21T19:41:24.912Z,8.50
2018-12-21T19:43:53.202Z,8.60
2018-12-21T19:46:21.348Z,8.60
2018-12-21T19:48:49.496Z,8.50
2018-12-21T19:51:17.778Z,8.50
2018-12-21T19:53:46.392Z,8.60
2018-12-21T19:56:32.617Z,8.60
2018-12-21T19:59:00.741Z,8.60
2018-12-21T20:01:28.897Z,8.70
2018-12-21T20:03:57.022Z,8.70
2018-12-21T20:06:25.170Z,8.60
2018-12-21T20:08:53.311Z,8.50
2018-12-21T20:11:21.424Z,8.60
2018-12-21T20:13:49.673Z,8.60
2018-12-21T20:16:17.813Z,8.70
2018-12-21T20:18:47.666Z,8.80
2018-12-21T20:21:16.005Z,8.80
2018-12-21T20:23:44.137Z,8.70
2018-12-21T20:26:12.310Z,8.70
2018-12-21T20:28:40.529Z,8.80
2018-12-21T20:31:08.668Z,8.70
2018-12-21T20:33:36.825Z,8.80
2018-12-21T20:36:05.133Z,8.80
2018-12-21T20:38:33.251Z,8.80
2018-12-21T20:41:05.257Z,8.70
2018-12-21T20:43:33.397Z,8.60
2018-12-21T20:46:01.521Z,8.70
2018-12-21T20:48:29.775Z,8.70
2018-12-21T20:50:57.916Z,8.70
2018-12-21T20:53:26.045Z,8.80
2018-12-21T20:55:54.185Z,8.70
2018-12-21T20:58:36.384Z,8.60
2018-12-21T21:01:04.676Z,8.70
2018-12-21T21:03:32.809Z,8.70
2018-12-21T21:06:01.059Z,8.70
2018-12-21T21:08:29.198Z,8.60
2018-12-21T21:10:57.461Z,8.60
2018-12-21T21:13:25.580Z,8.60
2018-12-21T21:15:53.695Z,8.60
2018-12-21T21:18:21.912Z,8.60
2018-12-21T21:20:50.028Z,8.60
2018-12-21T21:23:18.139Z,8.60
2018-12-21T21:25:46.354Z,8.60
2018-12-21T21:28:14.536Z,8.60
2018-12-21T21:30:43.977Z,8.60
2018-12-21T21:33:12.080Z,8.60
2018-12-21T21:35:40.293Z,8.60
2018-12-21T21:38:08.413Z,8.60
2018-12-21T21:40:37.657Z,8.60
2018-12-21T21:43:07.801Z,8.60
2018-12-21T21:45:35.920Z,8.60
2018-12-21T21:48:04.116Z,8.50
2018-12-21T21:50:32.236Z,8.50
2018-12-21T21:53:00.436Z,8.60
2018-12-21T21:55:28.643Z,8.60
2018-12-21T21:57:56.769Z,8.60
2018-12-21T22:00:24.984Z,8.50
2018-12-21T22:02:53.125Z,8.50
2018-12-21T22:05:21.408Z,8.60
2018-12-21T22:07:49.516Z,8.60
2018-12-21T22:10:17.813Z,8.50
2018-12-21T22:12:45.946Z,8.60
2018-12-21T22:15:14.072Z,8.60
2018-12-21T22:17:42.216Z,8.60
2018-12-21T22:20:11.422Z,8.60
2018-12-21T22:22:39.612Z,8.50
2018-12-21T22:25:07.775Z,8.50
2018-12-21T22:27:35.974Z,8.60
2018-12-21T22:30:05.245Z,8.60
2018-12-21T22:32:33.361Z,8.50
2018-12-21T22:35:01.480Z,8.60
2018-12-21T22:37:29.599Z,8.60
2018-12-21T22:39:57.806Z,8.60
2018-12-21T22:42:26.034Z,8.60
2018-12-21T22:44:54.165Z,8.60
2018-12-21T22:47:22.288Z,8.60
2018-12-21T22:49:50.418Z,8.60
2018-12-21T22:52:18.528Z,8.50
2018-12-21T22:54:46.662Z,8.50
2018-12-21T22:57:14.769Z,8.60
2018-12-21T22:59:42.884Z,8.60
2018-12-21T23:02:11.055Z,8.50
2018-12-21T23:04:39.176Z,8.50
2018-12-21T23:07:07.308Z,8.50
2018-12-21T23:09:35.443Z,8.50
2018-12-21T23:12:03.740Z,8.60
2018-12-21T23:14:31.972Z,8.50
2018-12-21T23:17:00.182Z,8.40
2018-12-21T23:19:28.304Z,8.50
2018-12-21T23:21:56.497Z,8.50
2018-12-21T23:24:24.624Z,8.40
2018-12-21T23:26:52.751Z,8.50
2018-12-21T23:29:20.890Z,8.50
2018-12-21T23:31:49.008Z,8.50
2018-12-21T23:34:17.129Z,8.50
2018-12-21T23:36:45.260Z,8.50
2018-12-21T23:39:13.405Z,8.50
2018-12-21T23:41:41.558Z,8.50
2018-12-21T23:44:09.669Z,8.50
2018-12-21T23:46:37.793Z,8.50
2018-12-21T23:49:05.932Z,8.50
2018-12-21T23:51:34.044Z,8.50
2018-12-21T23:54:02.383Z,8.50
2018-12-21T23:56:30.509Z,8.50
2018-12-21T23:58:58.616Z,8.50
